createdAt,value
2018-11-04T00:02:26.892Z,39.53
2018-11-04T00:04:56.160Z,64.23
2018-11-04T00:07:25.416Z,58.87
2018-11-04T00:09:54.694Z,41.47
2018-11-04T00:12:24.096Z,41.40
2018-11-04T00:14:53.319Z,54.87
2018-11-04T00:17:22.669Z,46.13
2018-11-04T00:19:52.021Z,54.33
2018-11-04T00:22:21.288Z,62.90
2018-11-04T00:24:50.522Z,86.97
2018-11-04T00:27:19.816Z,53.03
2018-11-04T00:29:49.238Z,61.03
2018-11-04T00:32:18.519Z,55.37
2018-11-04T00:34:47.797Z,52.40
2018-11-04T00:37:17.029Z,47.47
2018-11-04T00:39:46.297Z,64.20
2018-11-04T00:42:15.701Z,55.00
2018-11-04T00:44:44.917Z,47.07
2018-11-04T00:47:14.198Z,64.30
2018-11-04T00:49:43.464Z,73.77
2018-11-04T00:52:12.820Z,59.17
2018-11-04T00:54:42.064Z,65.13
2018-11-04T00:57:11.315Z,54.13
2018-11-04T00:59:40.562Z,65.67
2018-11-04T01:02:09.891Z,54.63
2018-11-04T01:04:39.101Z,50.43
2018-11-04T01:07:08.386Z,50.03
2018-11-04T01:09:37.623Z,44.83
2018-11-04T01:12:07.165Z,50.03
2018-11-04T01:14:36.466Z,55.20
2018-11-04T01:17:05.972Z,48.87
2018-11-04T01:19:35.236Z,47.63
2018-11-04T01:22:04.604Z,49.00
2018-11-04T01:24:34.015Z,47.03
2018-11-04T01:27:03.232Z,48.43
2018-11-04T01:29:32.476Z,61.93
2018-11-04T01:32:01.798Z,50.13
2018-11-04T01:34:31.032Z,57.17
2018-11-04T01:37:00.273Z,48.17
2018-11-04T01:39:29.572Z,49.03
2018-11-04T01:41:58.805Z,53.10
2018-11-04T01:44:28.024Z,53.67
2018-11-04T01:46:57.264Z,71.27
2018-11-04T01:49:26.525Z,55.00
2018-11-04T01:51:55.753Z,54.93
2018-11-04T01:54:25.036Z,60.37
2018-11-04T01:56:54.372Z,54.63
2018-11-04T01:59:23.626Z,50.27
2018-11-04T02:01:52.865Z,49.93
2018-11-04T02:04:22.120Z,49.53
2018-11-04T02:06:51.369Z,57.00
2018-11-04T02:09:20.593Z,57.47
2018-11-04T02:11:49.812Z,82.57
2018-11-04T02:14:19.096Z,63.80
2018-11-04T02:16:48.320Z,65.13
2018-11-04T02:19:17.587Z,54.20
2018-11-04T02:21:46.859Z,45.67
2018-11-04T02:24:16.218Z,74.73
2018-11-04T02:26:45.484Z,68.03
2018-11-04T02:29:14.816Z,58.13
2018-11-04T02:31:44.057Z,53.63
2018-11-04T02:34:13.386Z,52.00
2018-11-04T02:36:42.613Z,45.70
2018-11-04T02:39:12.192Z,46.73
2018-11-04T02:41:41.404Z,42.90
2018-11-04T02:44:10.801Z,44.67
2018-11-04T02:46:40.058Z,52.10
2018-11-04T02:49:09.297Z,60.53
2018-11-04T02:51:38.591Z,45.17
2018-11-04T02:54:07.889Z,54.87
2018-11-04T02:56:37.132Z,41.87
2018-11-04T02:59:06.900Z,65.80
2018-11-04T03:01:36.208Z,58.13
2018-11-04T03:04:05.631Z,61.30
2018-11-04T03:06:34.876Z,74.20
2018-11-04T03:09:05.748Z,67.90
2018-11-04T03:11:35.002Z,77.10
2018-11-04T03:14:04.383Z,47.70
2018-11-04T03:16:33.649Z,60.90
2018-11-04T03:19:02.882Z,66.13
2018-11-04T03:21:32.149Z,100.87
2018-11-04T03:24:01.549Z,62.97
2018-11-04T03:26:30.843Z,51.40
2018-11-04T03:29:00.070Z,68.10
2018-11-04T03:31:29.361Z,68.30
2018-11-04T03:33:58.775Z,44.23
2018-11-04T03:36:28.022Z,100.97
2018-11-04T03:38:57.558Z,54.40
2018-11-04T03:41:26.889Z,96.03
2018-11-04T03:43:56.261Z,57.70
2018-11-04T03:46:25.554Z,82.43
2018-11-04T03:48:54.782Z,83.73
2018-11-04T03:51:24.024Z,59.63
2018-11-04T03:53:53.356Z,63.93
2018-11-04T03:56:22.581Z,98.50
2018-11-04T03:58:51.825Z,56.37
2018-11-04T04:01:21.051Z,70.53
2018-11-04T04:03:50.352Z,91.60
2018-11-04T04:06:19.693Z,94.47
2018-11-04T04:08:48.961Z,60.27
2018-11-04T04:11:18.221Z,52.10
2018-11-04T04:13:47.864Z,66.47
2018-11-04T04:16:17.064Z,54.30
2018-11-04T04:18:46.328Z,46.23
2018-11-04T04:21:15.565Z,63.83
2018-11-04T04:23:44.856Z,51.17
2018-11-04T04:26:14.065Z,72.33
2018-11-04T04:28:43.287Z,54.53
2018-11-04T04:31:12.560Z,72.50
2018-11-04T04:33:41.857Z,64.37
2018-11-04T04:36:11.184Z,64.30
2018-11-04T04:38:40.450Z,60.03
2018-11-04T04:41:09.657Z,52.40
2018-11-04T04:43:38.927Z,65.00
2018-11-04T04:46:08.157Z,61.30
2018-11-04T04:48:37.389Z,46.60
2018-11-04T04:51:06.682Z,55.33
2018-11-04T04:53:36.077Z,59.73
2018-11-04T04:56:05.325Z,53.20
2018-11-04T04:58:34.597Z,50.87
2018-11-04T05:01:03.821Z,42.00
2018-11-04T05:03:33.057Z,45.07
2018-11-04T05:06:02.306Z,35.63
2018-11-04T05:08:32.129Z,32.23
2018-11-04T05:11:01.429Z,38.27
2018-11-04T05:13:30.728Z,32.70
2018-11-04T05:15:59.974Z,33.30
2018-11-04T05:18:29.192Z,33.90
2018-11-04T05:20:58.484Z,26.97
2018-11-04T05:23:27.764Z,33.60
2018-11-04T05:25:57.060Z,36.27
2018-11-04T05:28:26.280Z,40.13
2018-11-04T05:30:55.530Z,38.93
2018-11-04T05:33:24.796Z,47.67
2018-11-04T05:35:54.052Z,36.87
2018-11-04T05:38:23.363Z,38.10
2018-11-04T05:40:52.659Z,41.30
2018-11-04T05:43:21.990Z,38.67
2018-11-04T05:45:51.285Z,41.47
2018-11-04T05:48:21.537Z,32.67
2018-11-04T05:50:50.811Z,36.77
2018-11-04T05:53:20.087Z,52.27
2018-11-04T05:55:49.317Z,35.20
2018-11-04T05:58:18.543Z,42.43
2018-11-04T06:00:47.780Z,32.70
2018-11-04T06:03:17.380Z,38.60
2018-11-04T06:05:46.817Z,31.73
2018-11-04T06:08:16.089Z,35.10
2018-11-04T06:10:45.386Z,38.83
2018-11-04T06:13:15.923Z,32.60
2018-11-04T06:15:45.295Z,31.33
2018-11-04T06:18:14.596Z,29.77
2018-11-04T06:20:43.844Z,29.73
2018-11-04T06:23:13.113Z,27.97
2018-11-04T06:25:42.387Z,26.73
2018-11-04T06:28:11.840Z,27.27
2018-11-04T06:30:41.161Z,25.70
2018-11-04T06:33:10.519Z,28.57
2018-11-04T06:35:39.781Z,25.80
2018-11-04T06:38:09.017Z,24.70
2018-11-04T06:40:38.260Z,27.13
2018-11-04T06:43:07.736Z,24.63
2018-11-04T06:45:37.221Z,25.60
2018-11-04T06:48:06.628Z,31.10
2018-11-04T06:50:35.908Z,34.40
2018-11-04T06:53:05.612Z,33.50
2018-11-04T06:55:34.865Z,35.00
2018-11-04T06:58:07.146Z,35.03
2018-11-04T07:00:36.420Z,34.73
2018-11-04T07:03:05.756Z,33.00
2018-11-04T07:05:35.189Z,29.80
2018-11-04T07:08:04.439Z,25.33
2018-11-04T07:10:33.684Z,44.57
2018-11-04T07:13:03.064Z,27.20
2018-11-04T07:15:32.359Z,26.47
2018-11-04T07:18:01.810Z,34.77
2018-11-04T07:20:31.096Z,32.97
2018-11-04T07:23:00.492Z,29.60
2018-11-04T07:25:29.791Z,27.13
2018-11-04T07:27:59.024Z,26.33
2018-11-04T07:30:28.345Z,26.50
2018-11-04T07:32:57.628Z,27.17
2018-11-04T07:35:26.879Z,24.07
2018-11-04T07:37:56.124Z,23.40
2018-11-04T07:40:25.425Z,26.77
2018-11-04T07:42:54.768Z,24.47
2018-11-04T07:45:24.026Z,21.73
2018-11-04T07:47:53.333Z,19.33
2018-11-04T07:50:23.038Z,19.27
2018-11-04T07:52:52.492Z,20.30
2018-11-04T07:55:21.773Z,16.97
2018-11-04T07:57:51.040Z,17.30
2018-11-04T08:00:20.264Z,25.20
2018-11-04T08:02:49.583Z,22.00
2018-11-04T08:05:18.893Z,24.37
2018-11-04T08:07:48.156Z,19.87
2018-11-04T08:10:17.436Z,20.93
2018-11-04T08:12:46.757Z,17.33
2018-11-04T08:15:16.034Z,20.97
2018-11-04T08:17:45.360Z,18.73
2018-11-04T08:20:14.716Z,22.87
2018-11-04T08:22:44.353Z,18.87
2018-11-04T08:25:13.692Z,18.23
2018-11-04T08:27:42.978Z,17.73
2018-11-04T08:30:12.252Z,18.00
2018-11-04T08:32:41.646Z,19.97
2018-11-04T08:35:10.873Z,16.60
2018-11-04T08:37:40.140Z,16.57
2018-11-04T08:40:09.555Z,18.47
2018-11-04T08:42:38.862Z,15.20
2018-11-04T08:45:08.593Z,16.33
2018-11-04T08:47:37.885Z,21.10
2018-11-04T08:50:08.575Z,17.33
2018-11-04T08:52:39.485Z,16.40
2018-11-04T08:55:09.903Z,14.90
2018-11-04T08:57:39.169Z,14.57
2018-11-04T09:00:10.921Z,14.23
2018-11-04T09:02:40.325Z,13.13
2018-11-04T09:05:09.968Z,12.40
2018-11-04T09:07:39.344Z,14.23
2018-11-04T09:10:12.321Z,15.47
2018-11-04T09:12:41.765Z,16.73
2018-11-04T09:15:11.645Z,17.10
2018-11-04T09:17:40.960Z,16.27
2018-11-04T09:20:13.204Z,22.27
2018-11-04T09:22:43.424Z,16.70
2018-11-04T09:25:13.471Z,18.10
2018-11-04T09:27:43.144Z,18.40
2018-11-04T09:30:14.301Z,17.07
2018-11-04T09:32:43.768Z,18.70
2018-11-04T09:35:13.382Z,19.60
2018-11-04T09:37:42.641Z,18.07
2018-11-04T09:40:13.168Z,18.83
2018-11-04T09:42:42.461Z,18.13
2018-11-04T09:45:12.220Z,17.13
2018-11-04T09:47:41.496Z,16.07
2018-11-04T09:50:12.083Z,16.00
2018-11-04T09:52:41.480Z,15.07
2018-11-04T09:55:11.734Z,13.50
2018-11-04T09:57:41.187Z,15.70
2018-11-04T10:00:12.050Z,19.03
2018-11-04T10:02:41.909Z,14.37
2018-11-04T10:05:12.011Z,13.83
2018-11-04T10:07:41.369Z,14.80
2018-11-04T10:10:12.785Z,12.17
2018-11-04T10:12:43.360Z,12.50
2018-11-04T10:15:12.731Z,12.23
2018-11-04T10:17:42.372Z,10.87
2018-11-04T10:20:12.728Z,13.20
2018-11-04T10:22:43.076Z,11.50
2018-11-04T10:25:13.299Z,10.97
2018-11-04T10:27:43.113Z,9.77
2018-11-04T10:30:14.552Z,10.47
2018-11-04T10:32:43.908Z,10.63
2018-11-04T10:35:13.256Z,11.87
2018-11-04T10:37:43.024Z,13.07
2018-11-04T10:40:13.044Z,13.07
2018-11-04T10:42:42.344Z,12.03
2018-11-04T10:45:12.160Z,11.20
2018-11-04T10:47:41.418Z,10.23
2018-11-04T10:50:12.081Z,10.40
2018-11-04T10:52:42.508Z,10.63
2018-11-04T10:55:12.012Z,9.17
2018-11-04T10:57:41.224Z,10.60
2018-11-04T11:00:17.096Z,10.37
2018-11-04T11:02:46.775Z,11.73
2018-11-04T11:05:16.430Z,10.23
2018-11-04T11:07:46.036Z,9.27
2018-11-04T11:10:15.328Z,8.27
2018-11-04T11:12:44.700Z,8.00
2018-11-04T11:15:14.008Z,8.57
2018-11-04T11:17:43.292Z,8.07
2018-11-04T11:20:13.003Z,8.33
2018-11-04T11:22:42.905Z,10.33
2018-11-04T11:25:12.290Z,9.35
2018-11-04T11:27:41.545Z,7.72
2018-11-04T11:30:10.833Z,6.80
2018-11-04T11:32:40.181Z,7.35
2018-11-04T11:35:09.460Z,10.28
2018-11-04T11:37:38.727Z,8.35
2018-11-04T11:40:09.029Z,9.20
2018-11-04T11:42:38.387Z,9.63
2018-11-04T11:45:08.505Z,8.35
2018-11-04T11:47:37.885Z,7.83
2018-11-04T11:50:07.674Z,8.40
2018-11-04T11:52:37.086Z,8.30
2018-11-04T11:55:07.204Z,7.85
2018-11-04T11:57:36.764Z,7.58
2018-11-04T12:00:08.181Z,6.85
2018-11-04T12:02:38.125Z,5.42
2018-11-04T12:05:08.065Z,6.35
2018-11-04T12:07:37.380Z,5.92
2018-11-04T12:10:08.659Z,6.30
2018-11-04T12:12:38.278Z,6.63
2018-11-04T12:15:08.999Z,6.20
2018-11-04T12:17:38.300Z,6.57
2018-11-04T12:20:09.113Z,6.50
2018-11-04T12:22:38.414Z,7.83
2018-11-04T12:25:09.453Z,6.37
2018-11-04T12:27:38.773Z,8.40
2018-11-04T12:30:10.377Z,7.47
2018-11-04T12:32:39.928Z,7.17
2018-11-04T12:35:10.677Z,7.37
2018-11-04T12:37:39.965Z,7.17
2018-11-04T12:40:11.581Z,6.57
2018-11-04T12:42:40.983Z,7.93
2018-11-04T12:45:11.640Z,6.53
2018-11-04T12:47:40.934Z,7.13
2018-11-04T12:50:11.624Z,8.73
2018-11-04T12:52:41.009Z,7.80
2018-11-04T12:55:10.616Z,7.70
2018-11-04T12:57:40.008Z,6.27
2018-11-04T13:00:12.265Z,6.87
2018-11-04T13:02:41.777Z,6.90
2018-11-04T13:05:11.792Z,6.50
2018-11-04T13:07:41.080Z,8.53
2018-11-04T13:10:12.192Z,6.67
2018-11-04T13:12:41.544Z,7.30
2018-11-04T13:15:12.457Z,6.83
2018-11-04T13:17:41.972Z,7.43
2018-11-04T13:20:11.367Z,6.90
2018-11-04T13:22:40.977Z,6.17
2018-11-04T13:25:10.793Z,7.07
2018-11-04T13:27:40.127Z,6.57
2018-11-04T13:30:11.374Z,9.03
2018-11-04T13:32:40.792Z,6.70
2018-11-04T13:35:10.077Z,6.93
2018-11-04T13:37:39.535Z,6.67
2018-11-04T13:40:10.286Z,6.90
2018-11-04T13:42:39.876Z,7.67
2018-11-04T13:45:09.702Z,7.50
2018-11-04T13:47:39.068Z,7.57
2018-11-04T13:50:10.757Z,7.27
2018-11-04T13:52:40.057Z,6.33
2018-11-04T13:55:09.423Z,7.87
2018-11-04T13:57:39.237Z,7.00
2018-11-04T14:00:12.380Z,6.57
2018-11-04T14:02:41.980Z,5.73
2018-11-04T14:05:11.769Z,7.03
2018-11-04T14:07:41.645Z,5.90
2018-11-04T14:10:12.857Z,8.77
2018-11-04T14:12:42.707Z,14.50
2018-11-04T14:15:12.479Z,10.20
2018-11-04T14:17:41.723Z,12.97
2018-11-04T14:20:12.182Z,7.47
2018-11-04T14:22:42.026Z,7.83
2018-11-04T14:25:12.116Z,7.47
2018-11-04T14:27:41.492Z,7.73
2018-11-04T14:30:13.108Z,11.20
2018-11-04T14:32:42.797Z,8.97
2018-11-04T14:35:12.613Z,7.90
2018-11-04T14:37:42.639Z,9.13
2018-11-04T14:40:13.674Z,7.50
2018-11-04T14:42:43.689Z,9.33
2018-11-04T14:45:12.990Z,9.17
2018-11-04T14:47:42.320Z,9.97
2018-11-04T14:50:14.232Z,10.40
2018-11-04T14:52:43.692Z,10.50
2018-11-04T14:55:13.112Z,5.93
2018-11-04T14:57:42.369Z,6.97
2018-11-04T15:00:14.448Z,9.40
2018-11-04T15:02:43.843Z,9.03
2018-11-04T15:05:13.439Z,9.17
2018-11-04T15:07:42.718Z,12.17
2018-11-04T15:10:13.688Z,10.80
2018-11-04T15:12:43.176Z,9.70
2018-11-04T15:15:14.001Z,8.20
2018-11-04T15:17:43.333Z,7.70
2018-11-04T15:20:13.013Z,7.37
2018-11-04T15:22:45.270Z,9.17
2018-11-04T15:25:15.292Z,8.40
2018-11-04T15:27:44.616Z,8.67
2018-11-04T15:30:13.924Z,8.03
2018-11-04T15:32:43.506Z,8.50
2018-11-04T15:35:13.725Z,6.70
2018-11-04T15:37:43.021Z,8.63
2018-11-04T15:40:14.083Z,8.30
2018-11-04T15:42:43.365Z,10.13
2018-11-04T15:45:13.799Z,9.80
2018-11-04T15:47:43.107Z,7.30
2018-11-04T15:50:17.226Z,6.93
2018-11-04T15:52:47.025Z,6.27
2018-11-04T15:55:16.316Z,6.87
2018-11-04T15:57:45.605Z,6.47
2018-11-04T16:00:15.641Z,7.07
2018-11-04T16:02:45.064Z,8.53
2018-11-04T16:05:14.433Z,6.50
2018-11-04T16:07:43.729Z,5.50
2018-11-04T16:10:13.372Z,9.13
2018-11-04T16:12:42.956Z,9.03
2018-11-04T16:15:13.792Z,5.97
2018-11-04T16:17:43.627Z,8.67
2018-11-04T16:20:14.208Z,6.20
2018-11-04T16:22:44.173Z,7.57
2018-11-04T16:25:13.864Z,8.47
2018-11-04T16:27:43.488Z,7.03
2018-11-04T16:30:14.234Z,8.60
2018-11-04T16:32:43.490Z,8.33
2018-11-04T16:35:13.739Z,6.87
2018-11-04T16:37:44.016Z,6.53
2018-11-04T16:40:13.223Z,7.43
2018-11-04T16:42:42.606Z,7.27
2018-11-04T16:45:14.225Z,6.03
2018-11-04T16:47:43.519Z,5.97
2018-11-04T16:50:13.675Z,8.63
2018-11-04T16:52:43.644Z,8.57
2018-11-04T16:55:13.494Z,6.37
2018-11-04T16:57:43.270Z,6.23
2018-11-04T17:00:13.000Z,7.40
2018-11-04T17:02:42.479Z,11.67
2018-11-04T17:05:12.622Z,13.87
2018-11-04T17:07:42.435Z,17.67
2018-11-04T17:10:11.826Z,10.73
2018-11-04T17:12:41.159Z,10.60
2018-11-04T17:15:12.359Z,10.30
2018-11-04T17:17:48.398Z,9.73
2018-11-04T17:20:18.640Z,8.57
2018-11-04T17:22:48.044Z,8.07
2018-11-04T17:25:17.308Z,13.50
2018-11-04T17:27:46.568Z,12.63
2018-11-04T17:30:17.301Z,12.30
2018-11-04T17:32:46.885Z,11.30
2018-11-04T17:35:16.867Z,13.57
2018-11-04T17:37:46.508Z,7.80
2018-11-04T17:40:16.534Z,9.73
2018-11-04T17:42:46.057Z,9.13
2018-11-04T17:45:16.474Z,8.73
2018-11-04T17:47:46.269Z,8.53
2018-11-04T17:50:17.376Z,8.90
2018-11-04T17:52:46.815Z,8.27
2018-11-04T17:55:16.363Z,9.90
2018-11-04T17:57:45.950Z,10.53
2018-11-04T18:00:16.476Z,11.13
2018-11-04T18:02:45.892Z,9.77
2018-11-04T18:05:15.304Z,8.30
2018-11-04T18:07:44.992Z,10.30
2018-11-04T18:10:15.196Z,11.97
2018-11-04T18:12:44.521Z,13.67
2018-11-04T18:15:14.632Z,9.80
2018-11-04T18:17:44.037Z,9.53
2018-11-04T18:20:13.652Z,10.67
2018-11-04T18:22:43.015Z,13.40
2018-11-04T18:25:12.761Z,11.30
2018-11-04T18:27:42.037Z,10.23
2018-11-04T18:30:13.700Z,11.17
2018-11-04T18:32:43.315Z,10.47
2018-11-04T18:35:12.681Z,12.20
2018-11-04T18:37:45.077Z,12.77
2018-11-04T18:40:16.742Z,13.80
2018-11-04T18:42:46.412Z,12.80
2018-11-04T18:45:16.800Z,11.63
2018-11-04T18:47:46.176Z,11.70
2018-11-04T18:50:16.231Z,16.30
2018-11-04T18:52:45.842Z,13.57
2018-11-04T18:55:15.017Z,12.03
2018-11-04T18:57:44.802Z,10.17
2018-11-04T19:00:18.293Z,10.33
2018-11-04T19:02:48.444Z,11.07
2018-11-04T19:05:18.030Z,9.83
2018-11-04T19:07:47.283Z,9.20
2018-11-04T19:10:17.865Z,11.27
2018-11-04T19:12:47.386Z,12.43
2018-11-04T19:15:16.640Z,13.00
2018-11-04T19:17:45.899Z,11.27
2018-11-04T19:20:15.888Z,11.00
2018-11-04T19:22:45.248Z,10.73
2018-11-04T19:25:15.508Z,10.53
2018-11-04T19:27:44.874Z,9.53
2018-11-04T19:30:15.556Z,10.30
2018-11-04T19:32:45.251Z,11.60
2018-11-04T19:35:15.388Z,11.97
2018-11-04T19:37:44.774Z,10.70
2018-11-04T19:40:15.092Z,14.83
2018-11-04T19:42:44.463Z,15.20
2018-11-04T19:45:13.714Z,10.43
2018-11-04T19:47:42.996Z,10.97
2018-11-04T19:50:13.223Z,14.20
2018-11-04T19:52:42.960Z,10.77
2018-11-04T19:55:13.043Z,11.80
2018-11-04T19:57:42.443Z,13.40
2018-11-04T20:00:12.877Z,13.37
2018-11-04T20:02:42.219Z,11.90
2018-11-04T20:05:12.383Z,12.77
2018-11-04T20:07:41.756Z,13.93
2018-11-04T20:10:13.596Z,13.40
2018-11-04T20:12:47.980Z,15.33
2018-11-04T20:15:17.267Z,14.30
2018-11-04T20:17:47.310Z,13.60
2018-11-04T20:20:19.340Z,12.73
2018-11-04T20:22:48.718Z,14.67
2018-11-04T20:25:23.136Z,12.87
2018-11-04T20:27:52.476Z,12.67
2018-11-04T20:30:21.737Z,18.17
2018-11-04T20:32:56.208Z,19.90
2018-11-04T20:35:25.446Z,13.17
2018-11-04T20:37:54.832Z,17.63
2018-11-04T20:40:29.161Z,15.67
2018-11-04T20:42:58.756Z,17.70
2018-11-04T20:45:28.024Z,23.83
2018-11-04T20:48:02.532Z,22.83
2018-11-04T20:50:36.849Z,23.60
2018-11-04T20:53:06.263Z,19.23
2018-11-04T20:55:40.661Z,21.87
2018-11-04T20:58:10.037Z,20.30
2018-11-04T21:00:39.259Z,23.43
2018-11-04T21:03:08.598Z,19.00
2018-11-04T21:05:37.904Z,18.53
2018-11-04T21:08:07.700Z,20.07
2018-11-04T21:10:37.041Z,25.63
2018-11-04T21:13:06.328Z,20.97
2018-11-04T21:15:35.604Z,20.90
2018-11-04T21:18:04.940Z,18.10
2018-11-04T21:20:34.214Z,23.77
2018-11-04T21:23:03.555Z,25.23
2018-11-04T21:25:33.105Z,23.50
2018-11-04T21:28:02.300Z,20.40
2018-11-04T21:30:31.974Z,17.77
2018-11-04T21:33:01.626Z,24.40
2018-11-04T21:35:31.064Z,27.97
2018-11-04T21:38:00.591Z,20.77
2018-11-04T21:40:29.992Z,20.30
2018-11-04T21:42:59.751Z,28.70
2018-11-04T21:45:29.329Z,27.23
2018-11-04T21:47:58.814Z,24.43
2018-11-04T21:50:28.271Z,31.13
2018-11-04T21:52:57.714Z,33.17
2018-11-04T21:55:27.319Z,34.40
2018-11-04T21:57:57.349Z,30.63
2018-11-04T22:00:26.758Z,24.30
2018-11-04T22:02:56.541Z,29.33
2018-11-04T22:05:25.950Z,30.63
2018-11-04T22:07:55.572Z,34.13
2018-11-04T22:10:25.128Z,26.63
2018-11-04T22:12:54.757Z,26.07
2018-11-04T22:15:24.264Z,28.27
2018-11-04T22:17:53.512Z,27.60
2018-11-04T22:20:22.748Z,24.60
2018-11-04T22:22:52.037Z,28.87
2018-11-04T22:25:21.263Z,30.37
2018-11-04T22:27:50.509Z,21.33
2018-11-04T22:30:19.737Z,32.73
2018-11-04T22:32:49.011Z,30.07
2018-11-04T22:35:18.613Z,23.30
2018-11-04T22:37:47.868Z,32.20
2018-11-04T22:40:17.117Z,39.63
2018-11-04T22:42:46.445Z,27.63
2018-11-04T22:45:15.717Z,32.53
2018-11-04T22:47:45.001Z,29.97
2018-11-04T22:50:15.368Z,33.27
2018-11-04T22:52:44.977Z,29.90
2018-11-04T22:55:15.000Z,28.00
2018-11-04T22:57:44.707Z,30.70
2018-11-04T23:00:19.130Z,24.10
2018-11-04T23:02:49.656Z,34.13
2018-11-04T23:05:23.899Z,37.20
2018-11-04T23:07:53.377Z,36.00
2018-11-04T23:10:22.668Z,29.43
2018-11-04T23:12:51.996Z,34.53
2018-11-04T23:15:21.285Z,37.37
2018-11-04T23:17:50.749Z,36.03
2018-11-04T23:20:19.973Z,32.53
2018-11-04T23:22:49.249Z,33.57
2018-11-04T23:25:18.485Z,38.47
2018-11-04T23:27:47.745Z,32.43
2018-11-04T23:30:18.210Z,35.00
2018-11-04T23:32:48.089Z,38.87
2018-11-04T23:35:17.318Z,30.53
2018-11-04T23:37:46.591Z,33.40
2018-11-04T23:40:15.858Z,33.10
2018-11-04T23:42:45.320Z,44.00
2018-11-04T23:45:15.249Z,39.87
2018-11-04T23:47:44.657Z,30.00
2018-11-04T23:50:15.164Z,32.97
2018-11-04T23:52:44.781Z,34.47
2018-11-04T23:55:14.691Z,34.43
2018-11-04T23:57:43.960Z,31.93
